createdAt,value
2018-04-18T00:01:09.537Z,102089
2018-04-18T00:03:37.824Z,102084
2018-04-18T00:06:06.003Z,102084
2018-04-18T00:08:34.342Z,102078
2018-04-18T00:11:02.450Z,102078
2018-04-18T00:13:30.790Z,102088
2018-04-18T00:15:59.191Z,102087
2018-04-18T00:18:27.561Z,102094
2018-04-18T00:20:55.942Z,102086
2018-04-18T00:23:24.321Z,102089
2018-04-18T00:25:52.768Z,102086
2018-04-18T00:28:20.998Z,102089
2018-04-18T00:30:49.116Z,102091
2018-04-18T00:33:17.410Z,102093
2018-04-18T00:35:45.595Z,102092
2018-04-18T00:38:13.693Z,102101
2018-04-18T00:40:42.060Z,102099
2018-04-18T00:43:10.395Z,102093
2018-04-18T00:45:38.868Z,102103
2018-04-18T00:48:06.940Z,102107
2018-04-18T00:50:35.263Z,102099
2018-04-18T00:53:03.552Z,102116
2018-04-18T00:55:31.638Z,102102
2018-04-18T00:58:00.092Z,102107
2018-04-18T01:00:28.151Z,102101
2018-04-18T01:02:56.289Z,102105
2018-04-18T01:05:24.540Z,102111
2018-04-18T01:07:52.968Z,102096
2018-04-18T01:10:21.350Z,102100
2018-04-18T01:12:49.624Z,102097
2018-04-18T01:15:17.802Z,102101
2018-04-18T01:17:46.163Z,102111
2018-04-18T01:20:14.555Z,102107
2018-04-18T01:22:42.661Z,102099
2018-04-18T01:25:10.875Z,102097
2018-04-18T01:27:38.996Z,102097
2018-04-18T01:30:07.225Z,102101
2018-04-18T01:32:35.519Z,102100
2018-04-18T01:35:03.787Z,102102
2018-04-18T01:37:31.945Z,102110
2018-04-18T01:40:00.320Z,102108
2018-04-18T01:42:28.519Z,102103
2018-04-18T01:44:56.616Z,102109
2018-04-18T01:47:24.757Z,102108
2018-04-18T01:49:52.864Z,102116
2018-04-18T01:52:21.156Z,102114
2018-04-18T01:54:49.300Z,102116
2018-04-18T01:57:17.673Z,102116
2018-04-18T01:59:46.038Z,102120
2018-04-18T02:02:14.433Z,102117
2018-04-18T02:04:42.537Z,102117
2018-04-18T02:07:10.859Z,102130
2018-04-18T02:09:38.976Z,102129
2018-04-18T02:12:07.160Z,102118
2018-04-18T02:14:35.712Z,102126
2018-04-18T02:17:03.921Z,102130
2018-04-18T02:19:32.140Z,102120
2018-04-18T02:22:00.281Z,102132
2018-04-18T02:24:28.583Z,102137
2018-04-18T02:26:56.696Z,102137
2018-04-18T02:29:24.833Z,102135
2018-04-18T02:31:53.027Z,102135
2018-04-18T02:34:21.115Z,102142
2018-04-18T02:36:49.345Z,102142
2018-04-18T02:39:17.652Z,102137
2018-04-18T02:41:45.939Z,102146
2018-04-18T02:44:14.072Z,102140
2018-04-18T02:46:42.196Z,102137
2018-04-18T02:49:10.312Z,102142
2018-04-18T02:51:38.484Z,102142
2018-04-18T02:54:06.650Z,102138
2018-04-18T02:56:34.744Z,102139
2018-04-18T02:59:03.207Z,102146
2018-04-18T03:01:31.493Z,102142
2018-04-18T03:03:59.651Z,102139
2018-04-18T03:06:27.964Z,102154
2018-04-18T03:08:56.327Z,102144
2018-04-18T03:11:24.691Z,102159
2018-04-18T03:13:52.983Z,102157
2018-04-18T03:16:21.171Z,102160
2018-04-18T03:18:49.611Z,102166
2018-04-18T03:21:17.777Z,102162
2018-04-18T03:23:46.005Z,102162
2018-04-18T03:26:14.299Z,102158
2018-04-18T03:28:42.431Z,102174
2018-04-18T03:31:10.731Z,102171
2018-04-18T03:33:38.822Z,102178
2018-04-18T03:36:06.989Z,102182
2018-04-18T03:38:35.308Z,102173
2018-04-18T03:41:03.682Z,102184
2018-04-18T03:43:32.052Z,102179
2018-04-18T03:46:00.336Z,102185
2018-04-18T03:48:28.434Z,102185
2018-04-18T03:50:56.513Z,102191
2018-04-18T03:53:24.593Z,102192
2018-04-18T03:55:52.734Z,102198
2018-04-18T03:58:21.809Z,102192
2018-04-18T04:00:50.878Z,102193
2018-04-18T04:03:18.964Z,102200
2018-04-18T04:05:47.493Z,102203
2018-04-18T04:08:15.582Z,102196
2018-04-18T04:10:43.908Z,102202
2018-04-18T04:13:12.174Z,102208
2018-04-18T04:15:40.395Z,102204
2018-04-18T04:18:20.453Z,102220
2018-04-18T04:21:00.586Z,102217
2018-04-18T04:23:40.612Z,102218
2018-04-18T04:26:08.722Z,102221
2018-04-18T04:28:37.023Z,102212
2018-04-18T04:31:05.506Z,102221
2018-04-18T04:33:33.801Z,102219
2018-04-18T04:36:01.944Z,102232
2018-04-18T04:38:30.233Z,102230
2018-04-18T04:40:58.839Z,102235
2018-04-18T04:43:26.985Z,102243
2018-04-18T04:45:55.312Z,102235
2018-04-18T04:48:23.730Z,102246
2018-04-18T04:50:53.324Z,102246
2018-04-18T04:53:22.234Z,102247
2018-04-18T04:55:50.734Z,102252
2018-04-18T04:58:19.063Z,102266
2018-04-18T05:00:47.306Z,102259
2018-04-18T05:03:16.192Z,102260
2018-04-18T05:05:44.528Z,102263
2018-04-18T05:08:12.929Z,102261
2018-04-18T05:10:41.277Z,102264
2018-04-18T05:13:09.442Z,102274
2018-04-18T05:15:37.622Z,102266
2018-04-18T05:18:05.829Z,102274
2018-04-18T05:20:33.946Z,102276
2018-04-18T05:23:02.149Z,102286
2018-04-18T05:25:30.492Z,102276
2018-04-18T05:27:58.977Z,102286
2018-04-18T05:30:27.347Z,102291
2018-04-18T05:32:55.770Z,102298
2018-04-18T05:35:24.207Z,102306
2018-04-18T05:37:52.660Z,102302
2018-04-18T05:40:20.929Z,102304
2018-04-18T05:42:49.244Z,102308
2018-04-18T05:45:17.493Z,102316
2018-04-18T05:47:45.713Z,102325
2018-04-18T05:50:13.828Z,102326
2018-04-18T05:52:41.908Z,102331
2018-04-18T05:55:10.550Z,102332
2018-04-18T05:57:38.698Z,102340
2018-04-18T06:00:07.103Z,102351
2018-04-18T06:02:35.687Z,102336
2018-04-18T06:05:04.049Z,102335
2018-04-18T06:07:32.329Z,102343
2018-04-18T06:10:00.596Z,102339
2018-04-18T06:12:29.047Z,102347
2018-04-18T06:14:57.409Z,102339
2018-04-18T06:17:25.849Z,102339
2018-04-18T06:19:54.159Z,102345
2018-04-18T06:22:22.330Z,102349
2018-04-18T06:24:50.849Z,102363
2018-04-18T06:27:19.258Z,102350
2018-04-18T06:29:47.554Z,102366
2018-04-18T06:32:16.012Z,102358
2018-04-18T06:34:44.345Z,102355
2018-04-18T06:37:13.013Z,102361
2018-04-18T06:39:41.738Z,102362
2018-04-18T06:42:10.369Z,102360
2018-04-18T06:44:38.511Z,102356
2018-04-18T06:47:07.541Z,102362
2018-04-18T06:49:35.785Z,102370
2018-04-18T06:52:04.244Z,102368
2018-04-18T06:54:32.629Z,102368
2018-04-18T06:57:00.986Z,102370
2018-04-18T06:59:29.122Z,102388
2018-04-18T07:01:57.522Z,102386
2018-04-18T07:04:25.899Z,102377
2018-04-18T07:06:54.198Z,102383
2018-04-18T07:09:22.778Z,102383
2018-04-18T07:11:50.879Z,102387
2018-04-18T07:14:18.974Z,102385
2018-04-18T07:16:47.208Z,102395
2018-04-18T07:19:15.573Z,102404
2018-04-18T07:21:43.877Z,102389
2018-04-18T07:24:12.134Z,102398
2018-04-18T07:26:40.974Z,102395
2018-04-18T07:29:09.099Z,102402
2018-04-18T07:31:37.449Z,102399
2018-04-18T07:34:05.980Z,102409
2018-04-18T07:36:34.153Z,102417
2018-04-18T07:39:02.509Z,102403
2018-04-18T07:41:30.956Z,102409
2018-04-18T07:43:59.134Z,102412
2018-04-18T07:46:27.641Z,102405
2018-04-18T07:48:56.311Z,102407
2018-04-18T07:51:24.451Z,102409
2018-04-18T07:53:53.071Z,102409
2018-04-18T07:56:21.474Z,102415
2018-04-18T07:58:49.910Z,102424
2018-04-18T08:01:18.328Z,102420
2018-04-18T08:03:46.407Z,102423
2018-04-18T08:06:14.795Z,102429
2018-04-18T08:08:43.339Z,102422
2018-04-18T08:11:11.743Z,102428
2018-04-18T08:13:40.193Z,102428
2018-04-18T08:16:08.431Z,102429
2018-04-18T08:18:36.838Z,102434
2018-04-18T08:21:05.507Z,102431
2018-04-18T08:23:33.587Z,102438
2018-04-18T08:26:01.745Z,102443
2018-04-18T08:28:30.155Z,102449
2018-04-18T08:30:58.542Z,102438
2018-04-18T08:33:26.829Z,102443
2018-04-18T08:35:55.749Z,102439
2018-04-18T08:38:24.643Z,102441
2018-04-18T08:40:53.229Z,102435
2018-04-18T08:43:21.869Z,102447
2018-04-18T08:45:50.525Z,102438
2018-04-18T08:48:18.931Z,102442
2018-04-18T08:50:47.599Z,102450
2018-04-18T08:53:15.915Z,102454
2018-04-18T08:55:44.144Z,102446
2018-04-18T08:58:12.465Z,102454
2018-04-18T09:00:40.694Z,102458
2018-04-18T09:03:09.071Z,102458
2018-04-18T09:05:37.558Z,102460
2018-04-18T09:08:05.709Z,102449
2018-04-18T09:10:33.868Z,102443
2018-04-18T09:13:02.109Z,102457
2018-04-18T09:15:30.871Z,102447
2018-04-18T09:17:59.232Z,102446
2018-04-18T09:20:27.595Z,102452
2018-04-18T09:22:56.029Z,102446
2018-04-18T09:25:25.055Z,102449
2018-04-18T09:27:53.681Z,102451
2018-04-18T09:30:22.576Z,102455
2018-04-18T09:32:50.909Z,102447
2018-04-18T09:35:18.996Z,102451
2018-04-18T09:37:47.495Z,102441
2018-04-18T09:40:15.886Z,102444
2018-04-18T09:42:44.195Z,102441
2018-04-18T09:45:12.633Z,102447
2018-04-18T09:47:40.902Z,102440
2018-04-18T09:50:09.333Z,102442
2018-04-18T09:52:37.708Z,102439
2018-04-18T09:55:05.986Z,102436
2018-04-18T09:57:34.129Z,102445
2018-04-18T10:00:02.600Z,102431
2018-04-18T10:02:30.858Z,102437
2018-04-18T10:05:04.674Z,102433
2018-04-18T10:07:32.946Z,102437
2018-04-18T10:10:01.183Z,102433
2018-04-18T10:12:29.339Z,102430
2018-04-18T10:14:57.712Z,102435
2018-04-18T10:17:25.852Z,102426
2018-04-18T10:19:54.128Z,102428
2018-04-18T10:22:22.609Z,102428
2018-04-18T10:24:50.840Z,102430
2018-04-18T10:27:18.973Z,102433
2018-04-18T10:29:47.073Z,102433
2018-04-18T10:32:15.706Z,102428
2018-04-18T10:34:44.097Z,102437
2018-04-18T10:37:13.249Z,102433
2018-04-18T10:39:41.701Z,102428
2018-04-18T10:42:09.963Z,102431
2018-04-18T10:44:38.153Z,102427
2018-04-18T10:47:06.271Z,102427
2018-04-18T10:49:34.354Z,102432
2018-04-18T10:52:02.527Z,102435
2018-04-18T10:54:30.857Z,102427
2018-04-18T10:56:59.139Z,102445
2018-04-18T10:59:27.359Z,102444
2018-04-18T11:01:55.718Z,102442
2018-04-18T11:04:23.866Z,102431
2018-04-18T11:06:52.033Z,102436
2018-04-18T11:09:20.293Z,102448
2018-04-18T11:11:48.509Z,102438
2018-04-18T11:14:16.837Z,102446
2018-04-18T11:16:45.065Z,102443
2018-04-18T11:19:13.243Z,102434
2018-04-18T11:21:41.377Z,102443
2018-04-18T11:24:09.639Z,102437
2018-04-18T11:26:37.893Z,102443
2018-04-18T11:29:05.982Z,102427
2018-04-18T11:31:34.118Z,102440
2018-04-18T11:34:02.647Z,102441
2018-04-18T11:36:30.792Z,102435
2018-04-18T11:38:59.016Z,102433
2018-04-18T11:41:27.187Z,102442
2018-04-18T11:43:55.443Z,102430
2018-04-18T11:46:23.694Z,102417
2018-04-18T11:48:51.987Z,102433
2018-04-18T11:51:20.436Z,102431
2018-04-18T11:53:48.535Z,102428
2018-04-18T11:56:16.680Z,102429
2018-04-18T11:58:45.053Z,102422
2018-04-18T12:01:13.337Z,102418
2018-04-18T12:03:41.515Z,102428
2018-04-18T12:06:09.937Z,102423
2018-04-18T12:08:38.263Z,102422
2018-04-18T12:11:06.585Z,102417
2018-04-18T12:13:35.024Z,102422
2018-04-18T12:16:03.401Z,102423
2018-04-18T12:18:31.674Z,102417
2018-04-18T12:21:00.425Z,102422
2018-04-18T12:23:28.794Z,102424
2018-04-18T12:25:56.915Z,102427
2018-04-18T12:28:25.231Z,102412
2018-04-18T12:30:53.477Z,102416
2018-04-18T12:33:21.677Z,102422
2018-04-18T12:35:50.062Z,102418
2018-04-18T12:38:18.524Z,102412
2018-04-18T12:40:46.642Z,102415
2018-04-18T12:43:14.990Z,102424
2018-04-18T12:45:43.630Z,102418
2018-04-18T12:48:12.002Z,102413
2018-04-18T12:50:40.588Z,102408
2018-04-18T12:53:08.702Z,102409
2018-04-18T12:55:37.071Z,102408
2018-04-18T12:58:05.246Z,102417
2018-04-18T13:00:33.434Z,102406
2018-04-18T13:03:01.965Z,102407
2018-04-18T13:05:30.589Z,102401
2018-04-18T13:07:58.716Z,102401
2018-04-18T13:10:26.862Z,102389
2018-04-18T13:12:55.250Z,102384
2018-04-18T13:15:23.468Z,102394
2018-04-18T13:17:51.808Z,102386
2018-04-18T13:20:20.281Z,102387
2018-04-18T13:22:48.682Z,102394
2018-04-18T13:25:17.435Z,102385
2018-04-18T13:27:45.948Z,102386
2018-04-18T13:30:14.368Z,102387
2018-04-18T13:32:42.670Z,102389
2018-04-18T13:35:10.794Z,102385
2018-04-18T13:37:38.976Z,102386
2018-04-18T13:40:07.097Z,102377
2018-04-18T13:42:35.417Z,102373
2018-04-18T13:45:03.513Z,102375
2018-04-18T13:47:31.967Z,102381
2018-04-18T13:50:00.193Z,102382
2018-04-18T13:52:28.471Z,102370
2018-04-18T13:54:56.667Z,102366
2018-04-18T13:57:24.973Z,102368
2018-04-18T13:59:54.065Z,102381
2018-04-18T14:02:22.453Z,102370
2018-04-18T14:04:50.877Z,102368
2018-04-18T14:07:19.168Z,102371
2018-04-18T14:09:47.620Z,102368
2018-04-18T14:12:16.248Z,102375
2018-04-18T14:14:44.493Z,102368
2018-04-18T14:17:12.704Z,102375
2018-04-18T14:19:40.912Z,102371
2018-04-18T14:22:09.505Z,102369
2018-04-18T14:24:38.096Z,102364
2018-04-18T14:27:06.467Z,102362
2018-04-18T14:29:34.927Z,102361
2018-04-18T14:32:03.151Z,102360
2018-04-18T14:34:31.655Z,102364
2018-04-18T14:37:00.081Z,102360
2018-04-18T14:39:28.717Z,102358
2018-04-18T14:41:56.929Z,102360
2018-04-18T14:44:25.181Z,102353
2018-04-18T14:46:53.387Z,102354
2018-04-18T14:49:21.706Z,102346
2018-04-18T14:51:50.071Z,102347
2018-04-18T14:54:18.641Z,102352
2018-04-18T14:56:47.059Z,102348
2018-04-18T14:59:15.745Z,102342
2018-04-18T15:01:44.057Z,102344
2018-04-18T15:04:12.242Z,102352
2018-04-18T15:06:40.571Z,102343
2018-04-18T15:09:08.915Z,102348
2018-04-18T15:11:37.453Z,102345
2018-04-18T15:14:05.606Z,102347
2018-04-18T15:16:33.830Z,102342
2018-04-18T15:19:02.136Z,102345
2018-04-18T15:21:30.341Z,102341
2018-04-18T15:23:58.502Z,102341
2018-04-18T15:26:26.910Z,102337
2018-04-18T15:28:55.161Z,102342
2018-04-18T15:31:23.539Z,102330
2018-04-18T15:33:51.801Z,102331
2018-04-18T15:36:20.181Z,102333
2018-04-18T15:38:48.665Z,102330
2018-04-18T15:41:17.194Z,102334
2018-04-18T15:43:45.691Z,102324
2018-04-18T15:46:14.029Z,102328
2018-04-18T15:48:42.533Z,102326
2018-04-18T15:51:11.085Z,102324
2018-04-18T15:53:40.446Z,102321
2018-04-18T15:56:08.634Z,102325
2018-04-18T15:58:37.304Z,102324
2018-04-18T16:01:05.817Z,102319
2018-04-18T16:03:34.256Z,102324
2018-04-18T16:06:02.838Z,102323
2018-04-18T16:08:31.113Z,102319
2018-04-18T16:10:59.665Z,102323
2018-04-18T16:13:27.859Z,102323
2018-04-18T16:15:56.155Z,102328
2018-04-18T16:18:24.355Z,102322
2018-04-18T16:20:52.679Z,102328
2018-04-18T16:23:21.057Z,102324
2018-04-18T16:25:49.213Z,102321
2018-04-18T16:28:17.516Z,102322
2018-04-18T16:30:46.149Z,102315
2018-04-18T16:33:14.742Z,102311
2018-04-18T16:35:43.410Z,102311
2018-04-18T16:38:11.891Z,102309
2018-04-18T16:40:40.288Z,102310
2018-04-18T16:43:08.524Z,102310
2018-04-18T16:45:36.661Z,102312
2018-04-18T16:48:05.160Z,102308
2018-04-18T16:50:33.635Z,102313
2018-04-18T16:53:01.792Z,102312
2018-04-18T16:55:30.223Z,102318
2018-04-18T16:57:58.449Z,102318
2018-04-18T17:00:26.936Z,102303
2018-04-18T17:02:55.508Z,102316
2018-04-18T17:05:23.654Z,102308
2018-04-18T17:07:52.029Z,102320
2018-04-18T17:10:20.208Z,102312
2018-04-18T17:12:48.864Z,102310
2018-04-18T17:15:17.204Z,102314
2018-04-18T17:17:45.809Z,102318
2018-04-18T17:20:13.925Z,102312
2018-04-18T17:22:42.425Z,102313
2018-04-18T17:25:10.987Z,102325
2018-04-18T17:27:39.386Z,102318
2018-04-18T17:30:07.726Z,102318
2018-04-18T17:32:36.015Z,102321
2018-04-18T17:35:04.237Z,102323
2018-04-18T17:37:33.190Z,102326
2018-04-18T17:40:01.475Z,102326
2018-04-18T17:42:29.924Z,102322
2018-04-18T17:44:58.392Z,102325
2018-04-18T17:47:26.489Z,102332
2018-04-18T17:49:54.717Z,102331
2018-04-18T17:52:22.864Z,102327
2018-04-18T17:54:51.066Z,102334
2018-04-18T17:57:19.388Z,102328
2018-04-18T17:59:47.791Z,102322
2018-04-18T18:02:16.069Z,102324
2018-04-18T18:04:44.470Z,102329
2018-04-18T18:07:12.903Z,102328
2018-04-18T18:09:41.017Z,102326
2018-04-18T18:12:09.354Z,102326
2018-04-18T18:14:37.664Z,102330
2018-04-18T18:17:06.060Z,102332
2018-04-18T18:19:34.362Z,102332
2018-04-18T18:22:02.697Z,102328
2018-04-18T18:24:30.859Z,102333
2018-04-18T18:26:58.975Z,102333
2018-04-18T18:29:27.207Z,102336
2018-04-18T18:31:55.431Z,102339
2018-04-18T18:34:23.541Z,102342
2018-04-18T18:36:53.462Z,102331
2018-04-18T18:39:21.851Z,102337
2018-04-18T18:41:49.991Z,102343
2018-04-18T18:44:18.286Z,102340
2018-04-18T18:46:46.393Z,102345
2018-04-18T18:49:14.591Z,102346
2018-04-18T18:51:42.798Z,102350
2018-04-18T18:54:11.077Z,102351
2018-04-18T18:56:39.193Z,102353
2018-04-18T18:59:07.428Z,102368
2018-04-18T19:01:35.716Z,102369
2018-04-18T19:04:03.793Z,102364
2018-04-18T19:06:32.083Z,102373
2018-04-18T19:09:00.185Z,102374
2018-04-18T19:11:28.567Z,102368
2018-04-18T19:13:56.672Z,102365
2018-04-18T19:16:24.965Z,102363
2018-04-18T19:18:53.092Z,102370
2018-04-18T19:21:21.566Z,102363
2018-04-18T19:23:49.685Z,102356
2018-04-18T19:26:17.845Z,102360
2018-04-18T19:28:45.925Z,102358
2018-04-18T19:31:14.393Z,102359
2018-04-18T19:33:42.667Z,102367
2018-04-18T19:36:10.765Z,102359
2018-04-18T19:38:39.130Z,102359
2018-04-18T19:41:07.227Z,102363
2018-04-18T19:43:35.598Z,102355
2018-04-18T19:46:03.897Z,102357
2018-04-18T19:48:32.027Z,102355
2018-04-18T19:51:00.302Z,102355
2018-04-18T19:53:33.887Z,102358
2018-04-18T19:56:03.355Z,102358
2018-04-18T19:58:31.447Z,102368
2018-04-18T20:01:00.699Z,102368
2018-04-18T20:03:29.015Z,102361
2018-04-18T20:05:57.155Z,102371
2018-04-18T20:08:25.541Z,102375
2018-04-18T20:10:54.185Z,102382
2018-04-18T20:13:22.269Z,102383
2018-04-18T20:15:50.384Z,102367
2018-04-18T20:18:18.656Z,102391
2018-04-18T20:20:47.087Z,102381
2018-04-18T20:23:15.239Z,102383
2018-04-18T20:25:43.559Z,102378
2018-04-18T20:28:12.460Z,102390
2018-04-18T20:30:40.755Z,102389
2018-04-18T20:33:08.928Z,102388
2018-04-18T20:35:37.051Z,102393
2018-04-18T20:38:05.181Z,102377
2018-04-18T20:40:33.253Z,102389
2018-04-18T20:43:01.518Z,102389
2018-04-18T20:45:29.734Z,102381
2018-04-18T20:47:58.041Z,102387
2018-04-18T20:50:26.480Z,102385
2018-04-18T20:52:54.639Z,102390
2018-04-18T20:55:22.857Z,102388
2018-04-18T20:57:50.960Z,102392
2018-04-18T21:00:19.301Z,102382
2018-04-18T21:02:47.401Z,102384
2018-04-18T21:05:15.557Z,102386
2018-04-18T21:07:44.914Z,102371
2018-04-18T21:10:23.755Z,102386
2018-04-18T21:12:52.323Z,102377
2018-04-18T21:15:20.553Z,102376
2018-04-18T21:17:49.276Z,102383
2018-04-18T21:20:19.000Z,102377
2018-04-18T21:22:49.502Z,102389
2018-04-18T21:25:22.014Z,102392
2018-04-18T21:27:50.168Z,102386
2018-04-18T21:30:20.340Z,102383
2018-04-18T21:32:49.977Z,102388
2018-04-18T21:35:18.587Z,102387
2018-04-18T21:37:46.993Z,102388
2018-04-18T21:40:16.231Z,102384
2018-04-18T21:42:45.712Z,102393
2018-04-18T21:45:16.172Z,102398
2018-04-18T21:47:46.722Z,102394
2018-04-18T21:50:14.846Z,102395
2018-04-18T21:52:45.535Z,102389
2018-04-18T21:55:14.231Z,102386
2018-04-18T21:57:42.434Z,102394
2018-04-18T22:00:10.785Z,102394
2018-04-18T22:02:38.954Z,102386
2018-04-18T22:05:07.228Z,102386
2018-04-18T22:07:35.340Z,102394
2018-04-18T22:10:03.595Z,102383
2018-04-18T22:12:31.890Z,102385
2018-04-18T22:15:00.123Z,102381
2018-04-18T22:17:30.264Z,102385
2018-04-18T22:20:04.778Z,102384
2018-04-18T22:22:50.045Z,102390
2018-04-18T22:25:18.183Z,102386
2018-04-18T22:27:46.312Z,102393
2018-04-18T22:30:14.555Z,102388
2018-04-18T22:32:42.765Z,102393
2018-04-18T22:35:12.956Z,102383
2018-04-18T22:37:41.197Z,102387
2018-04-18T22:40:09.280Z,102385
2018-04-18T22:42:48.840Z,102382
2018-04-18T22:45:23.759Z,102386
2018-04-18T22:53:18.150Z,102398
2018-04-18T22:55:46.252Z,102389
2018-04-18T22:58:14.569Z,102400
2018-04-18T23:00:43.062Z,102390
2018-04-18T23:03:19.220Z,102402
2018-04-18T23:08:45.398Z,102392
2018-04-18T23:14:01.186Z,102367
2018-04-18T23:16:31.961Z,102396
2018-04-18T23:19:03.427Z,102345
2018-04-18T23:21:39.295Z,102388
2018-04-18T23:24:14.747Z,102381
2018-04-18T23:29:24.737Z,102383
2018-04-18T23:31:52.922Z,102385
2018-04-18T23:34:21.049Z,102381
2018-04-18T23:36:49.354Z,102370
2018-04-18T23:39:17.445Z,102382
2018-04-18T23:41:45.549Z,102371
2018-04-18T23:44:13.890Z,102382
2018-04-18T23:46:42.329Z,102363
2018-04-18T23:49:10.667Z,102366
2018-04-18T23:51:38.977Z,102369
2018-04-18T23:54:07.432Z,102374
2018-04-18T23:56:37.034Z,102377
2018-04-18T23:59:07.001Z,102374
